Terminal Aerodrome Forecast
Issued by NWS Detroit/Pontiac, MI

Home | Current Version | Previous Version | Text Only | Print | Product List | Glossary On
Versions: 1 2 3 4 5 6 7 8 9 10 11 12 13 14 15 16 17 18 19 20 21 22 23 24 25 26
000
FTUS43 KDTX 200300 AAA
TAFDTW
TAF AMD
KDTW 200305Z 2003/2106 19007KT P6SM OVC150
     FM200600 21008KT P6SM SCT080 OVC120
     FM201000 21010KT P6SM SCT025 OVC050
     FM201500 22010KT P6SM -SHRA BKN025 OVC040
     FM202000 29005KT P6SM -SHRA SCT012 OVC022=

USA.gov is the U.S. government's official web portal to all federal, state and local government web resources and services.